sensor_id;sensor_type;location;lat;lon;timestamp;P1;durP1;ratioP1;P2;durP2;ratioP2
7150;SDS011;3617;48.836;9.172;2023-04-03T00:02:20;3.73;;;2.70;;
7150;SDS011;3617;48.836;9.172;2023-04-03T00:04:46;3.73;;;3.00;;
7150;SDS011;3617;48.836;9.172;2023-04-03T00:07:12;3.93;;;2.70;;
7150;SDS011;3617;48.836;9.172;2023-04-03T00:09:39;3.60;;;2.53;;
7150;SDS011;3617;48.836;9.172;2023-04-03T00:12:05;3.23;;;2.70;;
7150;SDS011;3617;48.836;9.172;2023-04-03T00:14:31;4.43;;;2.73;;
7150;SDS011;3617;48.836;9.172;2023-04-03T00:16:57;3.97;;;3.03;;
7150;SDS011;3617;48.836;9.172;2023-04-03T00:19:23;4.90;;;3.03;;
7150;SDS011;3617;48.836;9.172;2023-04-03T00:21:49;3.50;;;2.63;;
7150;SDS011;3617;48.836;9.172;2023-04-03T00:24:15;5.13;;;2.73;;
7150;SDS011;3617;48.836;9.172;2023-04-03T00:26:41;2.97;;;2.63;;
7150;SDS011;3617;48.836;9.172;2023-04-03T00:29:07;5.30;;;2.87;;
7150;SDS011;3617;48.836;9.172;2023-04-03T00:31:33;5.10;;;2.57;;
7150;SDS011;3617;48.836;9.172;2023-04-03T00:33:59;3.60;;;2.40;;
7150;SDS011;3617;48.836;9.172;2023-04-03T00:36:25;4.47;;;3.03;;
7150;SDS011;3617;48.836;9.172;2023-04-03T00:38:51;3.23;;;2.70;;
7150;SDS011;3617;48.836;9.172;2023-04-03T00:41:17;5.53;;;2.87;;
7150;SDS011;3617;48.836;9.172;2023-04-03T00:43:43;3.93;;;2.87;;
7150;SDS011;3617;48.836;9.172;2023-04-03T00:46:10;3.07;;;2.73;;
7150;SDS011;3617;48.836;9.172;2023-04-03T00:48:38;2.47;;;2.27;;
7150;SDS011;3617;48.836;9.172;2023-04-03T00:51:06;3.80;;;2.80;;
7150;SDS011;3617;48.836;9.172;2023-04-03T00:53:37;2.90;;;2.47;;
7150;SDS011;3617;48.836;9.172;2023-04-03T00:56:05;3.90;;;2.90;;
7150;SDS011;3617;48.836;9.172;2023-04-03T00:58:34;3.03;;;2.60;;
7150;SDS011;3617;48.836;9.172;2023-04-03T01:01:03;4.57;;;2.73;;
7150;SDS011;3617;48.836;9.172;2023-04-03T01:03:31;3.20;;;2.50;;
7150;SDS011;3617;48.836;9.172;2023-04-03T01:05:57;3.60;;;2.30;;
7150;SDS011;3617;48.836;9.172;2023-04-03T01:08:23;3.67;;;2.83;;
7150;SDS011;3617;48.836;9.172;2023-04-03T01:10:49;4.43;;;2.47;;
7150;SDS011;3617;48.836;9.172;2023-04-03T01:13:26;3.60;;;2.87;;
7150;SDS011;3617;48.836;9.172;2023-04-03T01:15:52;3.00;;;2.63;;
7150;SDS011;3617;48.836;9.172;2023-04-03T01:18:19;3.47;;;2.53;;
7150;SDS011;3617;48.836;9.172;2023-04-03T01:28:07;4.90;;;2.80;;
7150;SDS011;3617;48.836;9.172;2023-04-03T01:30:35;3.07;;;2.77;;
7150;SDS011;3617;48.836;9.172;2023-04-03T01:33:05;3.93;;;2.73;;
7150;SDS011;3617;48.836;9.172;2023-04-03T01:35:31;3.07;;;2.40;;
7150;SDS011;3617;48.836;9.172;2023-04-03T01:37:57;3.10;;;2.57;;
7150;SDS011;3617;48.836;9.172;2023-04-03T01:40:23;3.27;;;2.77;;
7150;SDS011;3617;48.836;9.172;2023-04-03T01:42:49;3.70;;;2.83;;
7150;SDS011;3617;48.836;9.172;2023-04-03T01:45:15;4.27;;;2.47;;
7150;SDS011;3617;48.836;9.172;2023-04-03T01:47:41;6.87;;;3.03;;
7150;SDS011;3617;48.836;9.172;2023-04-03T01:50:07;3.77;;;2.80;;
7150;SDS011;3617;48.836;9.172;2023-04-03T01:52:33;4.60;;;2.67;;
7150;SDS011;3617;48.836;9.172;2023-04-03T01:54:59;2.83;;;2.53;;
7150;SDS011;3617;48.836;9.172;2023-04-03T01:57:25;3.23;;;2.67;;
7150;SDS011;3617;48.836;9.172;2023-04-03T01:59:51;4.23;;;2.80;;
7150;SDS011;3617;48.836;9.172;2023-04-03T02:02:17;3.97;;;2.87;;
7150;SDS011;3617;48.836;9.172;2023-04-03T02:04:45;3.30;;;2.70;;
7150;SDS011;3617;48.836;9.172;2023-04-03T02:07:11;3.50;;;3.10;;
7150;SDS011;3617;48.836;9.172;2023-04-03T02:09:37;7.10;;;2.90;;
7150;SDS011;3617;48.836;9.172;2023-04-03T02:12:03;3.47;;;3.17;;
7150;SDS011;3617;48.836;9.172;2023-04-03T02:14:29;7.20;;;3.40;;
7150;SDS011;3617;48.836;9.172;2023-04-03T02:16:55;3.97;;;2.90;;
7150;SDS011;3617;48.836;9.172;2023-04-03T02:19:21;3.00;;;2.60;;
7150;SDS011;3617;48.836;9.172;2023-04-03T02:21:47;4.77;;;3.40;;
7150;SDS011;3617;48.836;9.172;2023-04-03T02:24:13;3.97;;;2.80;;
7150;SDS011;3617;48.836;9.172;2023-04-03T02:26:39;3.97;;;2.90;;
7150;SDS011;3617;48.836;9.172;2023-04-03T02:29:05;5.07;;;3.30;;
7150;SDS011;3617;48.836;9.172;2023-04-03T02:31:31;5.30;;;2.93;;
7150;SDS011;3617;48.836;9.172;2023-04-03T02:33:57;3.17;;;2.80;;
7150;SDS011;3617;48.836;9.172;2023-04-03T02:36:23;4.27;;;2.73;;
7150;SDS011;3617;48.836;9.172;2023-04-03T02:38:49;3.10;;;2.80;;
7150;SDS011;3617;48.836;9.172;2023-04-03T02:41:15;3.27;;;2.40;;
7150;SDS011;3617;48.836;9.172;2023-04-03T02:43:41;3.90;;;2.70;;
7150;SDS011;3617;48.836;9.172;2023-04-03T02:46:08;4.30;;;2.63;;
7150;SDS011;3617;48.836;9.172;2023-04-03T02:48:34;3.87;;;2.43;;
7150;SDS011;3617;48.836;9.172;2023-04-03T02:51:00;2.70;;;2.40;;
7150;SDS011;3617;48.836;9.172;2023-04-03T02:53:26;4.57;;;3.00;;
7150;SDS011;3617;48.836;9.172;2023-04-03T02:55:52;4.27;;;2.60;;
7150;SDS011;3617;48.836;9.172;2023-04-03T02:58:18;5.53;;;3.20;;
7150;SDS011;3617;48.836;9.172;2023-04-03T03:00:44;4.50;;;2.97;;
7150;SDS011;3617;48.836;9.172;2023-04-03T03:03:10;3.00;;;2.40;;
7150;SDS011;3617;48.836;9.172;2023-04-03T03:05:38;4.43;;;2.40;;
7150;SDS011;3617;48.836;9.172;2023-04-03T03:08:04;3.47;;;2.67;;
7150;SDS011;3617;48.836;9.172;2023-04-03T03:10:30;3.63;;;2.57;;
7150;SDS011;3617;48.836;9.172;2023-04-03T03:12:56;3.37;;;2.40;;
7150;SDS011;3617;48.836;9.172;2023-04-03T03:15:22;2.73;;;2.17;;
7150;SDS011;3617;48.836;9.172;2023-04-03T03:17:48;4.13;;;2.67;;
7150;SDS011;3617;48.836;9.172;2023-04-03T03:20:14;3.63;;;2.40;;
7150;SDS011;3617;48.836;9.172;2023-04-03T03:22:40;2.90;;;2.23;;
7150;SDS011;3617;48.836;9.172;2023-04-03T03:25:06;3.43;;;2.40;;
7150;SDS011;3617;48.836;9.172;2023-04-03T03:27:32;5.63;;;2.70;;
7150;SDS011;3617;48.836;9.172;2023-04-03T03:29:58;2.50;;;2.30;;
7150;SDS011;3617;48.836;9.172;2023-04-03T03:32:24;2.87;;;2.37;;
7150;SDS011;3617;48.836;9.172;2023-04-03T03:34:50;9.17;;;4.83;;
7150;SDS011;3617;48.836;9.172;2023-04-03T03:37:16;14.00;;;8.23;;
7150;SDS011;3617;48.836;9.172;2023-04-03T03:39:42;23.63;;;10.63;;
7150;SDS011;3617;48.836;9.172;2023-04-03T03:42:09;23.33;;;9.47;;
7150;SDS011;3617;48.836;9.172;2023-04-03T03:44:36;23.13;;;10.70;;
7150;SDS011;3617;48.836;9.172;2023-04-03T03:47:02;34.83;;;15.77;;
7150;SDS011;3617;48.836;9.172;2023-04-03T03:49:28;6.77;;;4.80;;
7150;SDS011;3617;48.836;9.172;2023-04-03T03:51:54;13.60;;;7.20;;
7150;SDS011;3617;48.836;9.172;2023-04-03T03:54:20;10.87;;;6.47;;
7150;SDS011;3617;48.836;9.172;2023-04-03T03:56:46;9.60;;;5.60;;
7150;SDS011;3617;48.836;9.172;2023-04-03T03:59:12;8.20;;;4.90;;
7150;SDS011;3617;48.836;9.172;2023-04-03T04:01:38;7.70;;;3.43;;
7150;SDS011;3617;48.836;9.172;2023-04-03T04:04:04;2.83;;;2.40;;
7150;SDS011;3617;48.836;9.172;2023-04-03T04:06:30;7.00;;;4.10;;
7150;SDS011;3617;48.836;9.172;2023-04-03T04:08:56;8.20;;;4.87;;
7150;SDS011;3617;48.836;9.172;2023-04-03T04:11:22;4.53;;;2.87;;
7150;SDS011;3617;48.836;9.172;2023-04-03T04:13:48;4.37;;;2.83;;
7150;SDS011;3617;48.836;9.172;2023-04-03T04:16:14;6.43;;;3.37;;
7150;SDS011;3617;48.836;9.172;2023-04-03T04:18:40;5.07;;;3.40;;
7150;SDS011;3617;48.836;9.172;2023-04-03T04:21:06;6.63;;;3.73;;
7150;SDS011;3617;48.836;9.172;2023-04-03T04:23:32;6.63;;;3.40;;
7150;SDS011;3617;48.836;9.172;2023-04-03T04:25:58;4.03;;;2.90;;
7150;SDS011;3617;48.836;9.172;2023-04-03T04:28:24;10.20;;;4.47;;
7150;SDS011;3617;48.836;9.172;2023-04-03T04:30:50;4.80;;;3.37;;
7150;SDS011;3617;48.836;9.172;2023-04-03T04:33:16;6.37;;;3.83;;
7150;SDS011;3617;48.836;9.172;2023-04-03T04:35:42;6.13;;;3.47;;
7150;SDS011;3617;48.836;9.172;2023-04-03T04:38:08;4.60;;;3.60;;
7150;SDS011;3617;48.836;9.172;2023-04-03T04:40:35;4.73;;;3.33;;
7150;SDS011;3617;48.836;9.172;2023-04-03T04:43:02;2.30;;;2.10;;
7150;SDS011;3617;48.836;9.172;2023-04-03T04:45:28;2.40;;;2.20;;
7150;SDS011;3617;48.836;9.172;2023-04-03T04:47:55;4.10;;;2.40;;
7150;SDS011;3617;48.836;9.172;2023-04-03T04:50:21;3.60;;;2.77;;
7150;SDS011;3617;48.836;9.172;2023-04-03T04:52:47;3.10;;;2.47;;
7150;SDS011;3617;48.836;9.172;2023-04-03T04:55:13;3.07;;;2.43;;
7150;SDS011;3617;48.836;9.172;2023-04-03T04:57:40;3.20;;;2.40;;
7150;SDS011;3617;48.836;9.172;2023-04-03T05:00:06;4.13;;;2.50;;
7150;SDS011;3617;48.836;9.172;2023-04-03T05:02:32;2.63;;;2.43;;
7150;SDS011;3617;48.836;9.172;2023-04-03T05:04:58;3.17;;;2.70;;
7150;SDS011;3617;48.836;9.172;2023-04-03T05:07:24;2.60;;;2.40;;
7150;SDS011;3617;48.836;9.172;2023-04-03T05:09:50;4.03;;;2.50;;
7150;SDS011;3617;48.836;9.172;2023-04-03T05:12:16;2.87;;;2.47;;
7150;SDS011;3617;48.836;9.172;2023-04-03T05:14:42;2.50;;;2.30;;
7150;SDS011;3617;48.836;9.172;2023-04-03T05:17:08;3.20;;;2.47;;
7150;SDS011;3617;48.836;9.172;2023-04-03T05:19:34;3.67;;;2.60;;
7150;SDS011;3617;48.836;9.172;2023-04-03T05:22:00;3.73;;;2.40;;
7150;SDS011;3617;48.836;9.172;2023-04-03T05:24:26;3.03;;;2.27;;
7150;SDS011;3617;48.836;9.172;2023-04-03T05:26:52;3.47;;;2.37;;
7150;SDS011;3617;48.836;9.172;2023-04-03T05:29:18;2.77;;;2.43;;
7150;SDS011;3617;48.836;9.172;2023-04-03T05:31:44;2.77;;;2.50;;
7150;SDS011;3617;48.836;9.172;2023-04-03T05:34:10;2.87;;;2.53;;
7150;SDS011;3617;48.836;9.172;2023-04-03T05:36:36;3.73;;;2.57;;
7150;SDS011;3617;48.836;9.172;2023-04-03T05:39:02;2.73;;;2.07;;
7150;SDS011;3617;48.836;9.172;2023-04-03T05:41:28;2.50;;;2.30;;
7150;SDS011;3617;48.836;9.172;2023-04-03T05:43:55;3.23;;;2.50;;
7150;SDS011;3617;48.836;9.172;2023-04-03T05:46:20;3.63;;;2.77;;
7150;SDS011;3617;48.836;9.172;2023-04-03T05:48:46;4.23;;;2.57;;
7150;SDS011;3617;48.836;9.172;2023-04-03T05:51:17;7.20;;;2.63;;
7150;SDS011;3617;48.836;9.172;2023-04-03T05:53:43;3.33;;;2.40;;
7150;SDS011;3617;48.836;9.172;2023-04-03T05:56:10;3.27;;;2.47;;
7150;SDS011;3617;48.836;9.172;2023-04-03T05:58:36;3.23;;;2.67;;
7150;SDS011;3617;48.836;9.172;2023-04-03T06:01:02;2.73;;;2.43;;
7150;SDS011;3617;48.836;9.172;2023-04-03T06:03:28;3.50;;;2.60;;
7150;SDS011;3617;48.836;9.172;2023-04-03T06:05:54;2.63;;;2.40;;
7150;SDS011;3617;48.836;9.172;2023-04-03T06:08:20;3.30;;;2.10;;
7150;SDS011;3617;48.836;9.172;2023-04-03T06:10:46;2.37;;;2.17;;
7150;SDS011;3617;48.836;9.172;2023-04-03T06:13:12;2.90;;;2.23;;
7150;SDS011;3617;48.836;9.172;2023-04-03T06:15:38;3.97;;;2.27;;
7150;SDS011;3617;48.836;9.172;2023-04-03T06:18:05;5.20;;;2.60;;
7150;SDS011;3617;48.836;9.172;2023-04-03T06:20:31;3.50;;;2.60;;
7150;SDS011;3617;48.836;9.172;2023-04-03T06:22:57;2.50;;;2.23;;
7150;SDS011;3617;48.836;9.172;2023-04-03T06:25:23;2.50;;;2.30;;
7150;SDS011;3617;48.836;9.172;2023-04-03T06:27:50;2.80;;;2.33;;
7150;SDS011;3617;48.836;9.172;2023-04-03T06:30:16;6.33;;;2.67;;
7150;SDS011;3617;48.836;9.172;2023-04-03T06:32:42;3.40;;;2.70;;
7150;SDS011;3617;48.836;9.172;2023-04-03T06:35:08;2.97;;;2.27;;
7150;SDS011;3617;48.836;9.172;2023-04-03T06:37:34;4.23;;;2.50;;
7150;SDS011;3617;48.836;9.172;2023-04-03T06:40:00;2.50;;;2.30;;
7150;SDS011;3617;48.836;9.172;2023-04-03T06:42:27;3.17;;;2.57;;
7150;SDS011;3617;48.836;9.172;2023-04-03T06:44:53;7.30;;;2.73;;
7150;SDS011;3617;48.836;9.172;2023-04-03T06:47:19;6.73;;;3.33;;
7150;SDS011;3617;48.836;9.172;2023-04-03T06:49:45;2.87;;;2.57;;
7150;SDS011;3617;48.836;9.172;2023-04-03T06:52:11;3.20;;;2.67;;
7150;SDS011;3617;48.836;9.172;2023-04-03T06:54:38;3.07;;;2.53;;
7150;SDS011;3617;48.836;9.172;2023-04-03T06:57:04;5.33;;;2.70;;
7150;SDS011;3617;48.836;9.172;2023-04-03T06:59:30;3.17;;;2.53;;
7150;SDS011;3617;48.836;9.172;2023-04-03T07:01:56;4.47;;;2.40;;
7150;SDS011;3617;48.836;9.172;2023-04-03T07:04:23;4.53;;;2.70;;
7150;SDS011;3617;48.836;9.172;2023-04-03T07:06:49;2.77;;;2.37;;
7150;SDS011;3617;48.836;9.172;2023-04-03T07:09:15;2.53;;;2.23;;
7150;SDS011;3617;48.836;9.172;2023-04-03T07:11:41;3.60;;;2.97;;
7150;SDS011;3617;48.836;9.172;2023-04-03T07:14:07;3.43;;;2.70;;
7150;SDS011;3617;48.836;9.172;2023-04-03T07:16:34;6.67;;;3.13;;
7150;SDS011;3617;48.836;9.172;2023-04-03T07:19:00;3.27;;;2.60;;
7150;SDS011;3617;48.836;9.172;2023-04-03T07:21:26;3.63;;;2.70;;
7150;SDS011;3617;48.836;9.172;2023-04-03T07:23:53;2.97;;;2.50;;
7150;SDS011;3617;48.836;9.172;2023-04-03T07:26:19;4.17;;;2.77;;
7150;SDS011;3617;48.836;9.172;2023-04-03T07:28:46;3.97;;;2.37;;
7150;SDS011;3617;48.836;9.172;2023-04-03T07:31:13;4.17;;;2.83;;
7150;SDS011;3617;48.836;9.172;2023-04-03T07:33:40;5.83;;;2.73;;
7150;SDS011;3617;48.836;9.172;2023-04-03T07:36:06;4.53;;;2.60;;
7150;SDS011;3617;48.836;9.172;2023-04-03T07:38:33;3.90;;;2.80;;
7150;SDS011;3617;48.836;9.172;2023-04-03T07:41:00;5.17;;;2.60;;
7150;SDS011;3617;48.836;9.172;2023-04-03T07:43:26;3.60;;;2.80;;
7150;SDS011;3617;48.836;9.172;2023-04-03T07:45:52;3.53;;;2.97;;
7150;SDS011;3617;48.836;9.172;2023-04-03T07:48:23;5.73;;;2.80;;
7150;SDS011;3617;48.836;9.172;2023-04-03T07:50:49;4.20;;;2.80;;
7150;SDS011;3617;48.836;9.172;2023-04-03T07:53:16;3.53;;;2.40;;
7150;SDS011;3617;48.836;9.172;2023-04-03T07:55:42;4.23;;;2.77;;
7150;SDS011;3617;48.836;9.172;2023-04-03T07:58:13;2.60;;;2.40;;
7150;SDS011;3617;48.836;9.172;2023-04-03T08:00:39;4.80;;;2.43;;
7150;SDS011;3617;48.836;9.172;2023-04-03T08:03:06;2.43;;;2.20;;
7150;SDS011;3617;48.836;9.172;2023-04-03T08:05:35;5.07;;;2.57;;
7150;SDS011;3617;48.836;9.172;2023-04-03T08:08:02;3.80;;;2.80;;
7150;SDS011;3617;48.836;9.172;2023-04-03T08:10:29;3.87;;;2.90;;
7150;SDS011;3617;48.836;9.172;2023-04-03T08:12:55;5.53;;;2.73;;
7150;SDS011;3617;48.836;9.172;2023-04-03T08:15:21;3.47;;;2.30;;
7150;SDS011;3617;48.836;9.172;2023-04-03T08:17:47;3.43;;;2.53;;
7150;SDS011;3617;48.836;9.172;2023-04-03T08:20:13;4.40;;;2.60;;
7150;SDS011;3617;48.836;9.172;2023-04-03T08:22:39;3.77;;;2.70;;
7150;SDS011;3617;48.836;9.172;2023-04-03T08:25:05;3.73;;;2.50;;
7150;SDS011;3617;48.836;9.172;2023-04-03T08:27:31;3.20;;;2.30;;
7150;SDS011;3617;48.836;9.172;2023-04-03T08:29:58;2.93;;;2.43;;
7150;SDS011;3617;48.836;9.172;2023-04-03T08:32:24;3.23;;;2.50;;
7150;SDS011;3617;48.836;9.172;2023-04-03T08:34:50;3.20;;;2.47;;
7150;SDS011;3617;48.836;9.172;2023-04-03T08:37:16;4.17;;;2.77;;
7150;SDS011;3617;48.836;9.172;2023-04-03T08:39:43;5.60;;;3.07;;
7150;SDS011;3617;48.836;9.172;2023-04-03T08:44:46;5.50;;;2.73;;
7150;SDS011;3617;48.836;9.172;2023-04-03T08:49:58;3.10;;;2.80;;
7150;SDS011;3617;48.836;9.172;2023-04-03T08:55:22;3.87;;;2.60;;
7150;SDS011;3617;48.836;9.172;2023-04-03T08:57:48;3.90;;;2.50;;
7150;SDS011;3617;48.836;9.172;2023-04-03T09:00:18;3.93;;;2.50;;
7150;SDS011;3617;48.836;9.172;2023-04-03T09:02:45;6.50;;;2.60;;
7150;SDS011;3617;48.836;9.172;2023-04-03T09:05:19;4.60;;;2.70;;
7150;SDS011;3617;48.836;9.172;2023-04-03T09:08:33;3.53;;;2.57;;
7150;SDS011;3617;48.836;9.172;2023-04-03T09:10:33;3.97;;;2.50;;
7150;SDS011;3617;48.836;9.172;2023-04-03T09:15:44;2.70;;;2.20;;
7150;SDS011;3617;48.836;9.172;2023-04-03T09:18:19;2.30;;;2.10;;
7150;SDS011;3617;48.836;9.172;2023-04-03T09:23:29;2.60;;;2.13;;
7150;SDS011;3617;48.836;9.172;2023-04-03T09:26:00;3.23;;;2.20;;
7150;SDS011;3617;48.836;9.172;2023-04-03T09:28:28;2.33;;;2.13;;
7150;SDS011;3617;48.836;9.172;2023-04-03T09:30:55;3.67;;;2.17;;
7150;SDS011;3617;48.836;9.172;2023-04-03T09:33:21;3.50;;;2.50;;
7150;SDS011;3617;48.836;9.172;2023-04-03T09:35:48;3.73;;;2.47;;
7150;SDS011;3617;48.836;9.172;2023-04-03T09:38:17;2.40;;;2.20;;
7150;SDS011;3617;48.836;9.172;2023-04-03T09:40:44;3.73;;;2.50;;
7150;SDS011;3617;48.836;9.172;2023-04-03T09:45:42;3.60;;;2.70;;
7150;SDS011;3617;48.836;9.172;2023-04-03T09:50:52;2.73;;;2.40;;
7150;SDS011;3617;48.836;9.172;2023-04-03T09:55:59;2.50;;;2.30;;
7150;SDS011;3617;48.836;9.172;2023-04-03T09:58:32;3.93;;;2.43;;
7150;SDS011;3617;48.836;9.172;2023-04-03T10:00:59;3.40;;;2.07;;
7150;SDS011;3617;48.836;9.172;2023-04-03T10:05:55;2.50;;;2.20;;
7150;SDS011;3617;48.836;9.172;2023-04-03T10:08:24;4.80;;;2.27;;
7150;SDS011;3617;48.836;9.172;2023-04-03T10:13:33;2.60;;;2.20;;
7150;SDS011;3617;48.836;9.172;2023-04-03T10:16:02;2.70;;;2.50;;
7150;SDS011;3617;48.836;9.172;2023-04-03T10:18:45;3.93;;;2.33;;
7150;SDS011;3617;48.836;9.172;2023-04-03T10:21:19;3.97;;;2.20;;
7150;SDS011;3617;48.836;9.172;2023-04-03T10:26:39;2.30;;;2.10;;
7150;SDS011;3617;48.836;9.172;2023-04-03T10:31:53;2.40;;;2.20;;
7150;SDS011;3617;48.836;9.172;2023-04-03T10:34:21;3.60;;;2.30;;
7150;SDS011;3617;48.836;9.172;2023-04-03T10:42:08;3.83;;;2.43;;
7150;SDS011;3617;48.836;9.172;2023-04-03T10:50:15;7.17;;;2.30;;
7150;SDS011;3617;48.836;9.172;2023-04-03T10:58:02;2.40;;;1.80;;
7150;SDS011;3617;48.836;9.172;2023-04-03T11:00:34;3.73;;;2.07;;
7150;SDS011;3617;48.836;9.172;2023-04-03T11:03:07;3.07;;;1.97;;
7150;SDS011;3617;48.836;9.172;2023-04-03T11:05:41;4.07;;;2.03;;
7150;SDS011;3617;48.836;9.172;2023-04-03T11:08:13;3.43;;;2.17;;
7150;SDS011;3617;48.836;9.172;2023-04-03T11:10:45;4.00;;;2.13;;
7150;SDS011;3617;48.836;9.172;2023-04-03T11:13:17;2.17;;;1.90;;
7150;SDS011;3617;48.836;9.172;2023-04-03T11:15:44;2.20;;;2.00;;
7150;SDS011;3617;48.836;9.172;2023-04-03T11:18:22;2.40;;;2.10;;
7150;SDS011;3617;48.836;9.172;2023-04-03T11:21:00;4.17;;;2.27;;
7150;SDS011;3617;48.836;9.172;2023-04-03T11:23:30;1.90;;;1.43;;
7150;SDS011;3617;48.836;9.172;2023-04-03T11:25:58;2.97;;;1.80;;
7150;SDS011;3617;48.836;9.172;2023-04-03T11:28:26;2.00;;;1.80;;
7150;SDS011;3617;48.836;9.172;2023-04-03T11:31:13;3.47;;;1.87;;
7150;SDS011;3617;48.836;9.172;2023-04-03T11:36:18;2.83;;;1.70;;
7150;SDS011;3617;48.836;9.172;2023-04-03T11:38:46;4.50;;;2.03;;
7150;SDS011;3617;48.836;9.172;2023-04-03T11:41:13;2.23;;;1.80;;
7150;SDS011;3617;48.836;9.172;2023-04-03T11:43:43;2.53;;;1.70;;
7150;SDS011;3617;48.836;9.172;2023-04-03T11:46:21;2.13;;;1.93;;
7150;SDS011;3617;48.836;9.172;2023-04-03T11:48:48;2.83;;;1.77;;
7150;SDS011;3617;48.836;9.172;2023-04-03T11:53:41;2.33;;;1.83;;
7150;SDS011;3617;48.836;9.172;2023-04-03T12:01:51;3.93;;;1.90;;
7150;SDS011;3617;48.836;9.172;2023-04-03T12:04:17;1.70;;;1.43;;
7150;SDS011;3617;48.836;9.172;2023-04-03T12:09:34;3.93;;;1.93;;
7150;SDS011;3617;48.836;9.172;2023-04-03T12:12:01;1.87;;;1.20;;
7150;SDS011;3617;48.836;9.172;2023-04-03T12:14:47;3.57;;;2.10;;
7150;SDS011;3617;48.836;9.172;2023-04-03T12:17:20;3.03;;;2.00;;
7150;SDS011;3617;48.836;9.172;2023-04-03T12:19:46;2.40;;;1.80;;
7150;SDS011;3617;48.836;9.172;2023-04-03T12:22:13;2.37;;;1.50;;
7150;SDS011;3617;48.836;9.172;2023-04-03T12:24:41;1.70;;;1.57;;
7150;SDS011;3617;48.836;9.172;2023-04-03T12:29:53;1.93;;;1.60;;
7150;SDS011;3617;48.836;9.172;2023-04-03T12:34:55;3.53;;;2.13;;
7150;SDS011;3617;48.836;9.172;2023-04-03T12:37:37;3.03;;;1.63;;
7150;SDS011;3617;48.836;9.172;2023-04-03T12:40:21;3.73;;;2.60;;
7150;SDS011;3617;48.836;9.172;2023-04-03T12:43:08;6.80;;;1.83;;
7150;SDS011;3617;48.836;9.172;2023-04-03T12:45:50;3.23;;;1.80;;
7150;SDS011;3617;48.836;9.172;2023-04-03T12:48:17;2.33;;;1.70;;
7150;SDS011;3617;48.836;9.172;2023-04-03T12:50:46;2.10;;;1.50;;
7150;SDS011;3617;48.836;9.172;2023-04-03T12:53:13;2.53;;;1.70;;
7150;SDS011;3617;48.836;9.172;2023-04-03T12:55:40;2.47;;;1.80;;
7150;SDS011;3617;48.836;9.172;2023-04-03T12:58:15;3.23;;;1.87;;
7150;SDS011;3617;48.836;9.172;2023-04-03T13:00:42;3.13;;;1.80;;
7150;SDS011;3617;48.836;9.172;2023-04-03T13:03:19;2.93;;;1.80;;
7150;SDS011;3617;48.836;9.172;2023-04-03T13:05:47;2.40;;;1.63;;
7150;SDS011;3617;48.836;9.172;2023-04-03T13:08:13;2.10;;;1.80;;
7150;SDS011;3617;48.836;9.172;2023-04-03T13:10:47;3.00;;;1.90;;
7150;SDS011;3617;48.836;9.172;2023-04-03T13:13:14;2.50;;;1.90;;
7150;SDS011;3617;48.836;9.172;2023-04-03T13:15:43;3.30;;;1.80;;
7150;SDS011;3617;48.836;9.172;2023-04-03T13:18:23;2.10;;;1.80;;
7150;SDS011;3617;48.836;9.172;2023-04-03T13:20:49;2.33;;;1.80;;
7150;SDS011;3617;48.836;9.172;2023-04-03T13:23:16;2.60;;;1.63;;
7150;SDS011;3617;48.836;9.172;2023-04-03T13:25:43;2.53;;;1.70;;
7150;SDS011;3617;48.836;9.172;2023-04-03T13:28:13;2.40;;;1.73;;
7150;SDS011;3617;48.836;9.172;2023-04-03T13:30:41;2.93;;;2.07;;
7150;SDS011;3617;48.836;9.172;2023-04-03T13:33:20;3.50;;;1.90;;
7150;SDS011;3617;48.836;9.172;2023-04-03T13:35:47;2.27;;;1.60;;
7150;SDS011;3617;48.836;9.172;2023-04-03T13:40:52;1.73;;;1.30;;
7150;SDS011;3617;48.836;9.172;2023-04-03T13:43:20;2.97;;;1.87;;
7150;SDS011;3617;48.836;9.172;2023-04-03T13:48:24;2.23;;;1.67;;
7150;SDS011;3617;48.836;9.172;2023-04-03T13:51:01;4.73;;;2.10;;
7150;SDS011;3617;48.836;9.172;2023-04-03T13:53:29;2.30;;;1.67;;
7150;SDS011;3617;48.836;9.172;2023-04-03T13:58:26;3.20;;;1.70;;
7150;SDS011;3617;48.836;9.172;2023-04-03T14:01:11;3.47;;;1.70;;
7150;SDS011;3617;48.836;9.172;2023-04-03T14:03:52;2.30;;;1.80;;
7150;SDS011;3617;48.836;9.172;2023-04-03T14:06:18;2.20;;;1.60;;
7150;SDS011;3617;48.836;9.172;2023-04-03T14:08:45;3.83;;;1.77;;
7150;SDS011;3617;48.836;9.172;2023-04-03T14:11:14;3.77;;;1.90;;
7150;SDS011;3617;48.836;9.172;2023-04-03T14:13:41;2.60;;;1.80;;
7150;SDS011;3617;48.836;9.172;2023-04-03T14:16:07;2.73;;;1.83;;
7150;SDS011;3617;48.836;9.172;2023-04-03T14:18:33;2.43;;;1.50;;
7150;SDS011;3617;48.836;9.172;2023-04-03T14:20:59;2.03;;;1.73;;
7150;SDS011;3617;48.836;9.172;2023-04-03T14:23:25;3.17;;;1.80;;
7150;SDS011;3617;48.836;9.172;2023-04-03T14:25:51;4.73;;;2.00;;
7150;SDS011;3617;48.836;9.172;2023-04-03T14:28:19;2.40;;;1.73;;
7150;SDS011;3617;48.836;9.172;2023-04-03T14:30:46;2.70;;;1.90;;
7150;SDS011;3617;48.836;9.172;2023-04-03T14:33:13;2.00;;;1.80;;
7150;SDS011;3617;48.836;9.172;2023-04-03T14:35:39;4.37;;;2.00;;
7150;SDS011;3617;48.836;9.172;2023-04-03T14:38:12;2.40;;;1.60;;
7150;SDS011;3617;48.836;9.172;2023-04-03T14:40:45;3.70;;;2.07;;
7150;SDS011;3617;48.836;9.172;2023-04-03T14:43:12;2.37;;;1.60;;
7150;SDS011;3617;48.836;9.172;2023-04-03T14:45:38;2.20;;;1.60;;
7150;SDS011;3617;48.836;9.172;2023-04-03T14:48:04;2.17;;;1.80;;
7150;SDS011;3617;48.836;9.172;2023-04-03T14:50:31;2.73;;;1.80;;
7150;SDS011;3617;48.836;9.172;2023-04-03T14:52:58;1.93;;;1.47;;
7150;SDS011;3617;48.836;9.172;2023-04-03T14:55:24;1.90;;;1.80;;
7150;SDS011;3617;48.836;9.172;2023-04-03T14:57:50;3.23;;;2.00;;
7150;SDS011;3617;48.836;9.172;2023-04-03T15:00:18;3.13;;;1.93;;
7150;SDS011;3617;48.836;9.172;2023-04-03T15:02:45;2.10;;;1.90;;
7150;SDS011;3617;48.836;9.172;2023-04-03T15:05:12;2.90;;;1.80;;
7150;SDS011;3617;48.836;9.172;2023-04-03T15:07:42;1.60;;;1.50;;
7150;SDS011;3617;48.836;9.172;2023-04-03T15:12:41;2.83;;;1.80;;
7150;SDS011;3617;48.836;9.172;2023-04-03T15:15:07;1.60;;;1.50;;
7150;SDS011;3617;48.836;9.172;2023-04-03T15:17:33;3.63;;;1.93;;
7150;SDS011;3617;48.836;9.172;2023-04-03T15:19:59;2.93;;;2.03;;
7150;SDS011;3617;48.836;9.172;2023-04-03T15:22:26;2.10;;;1.80;;
7150;SDS011;3617;48.836;9.172;2023-04-03T15:24:53;4.73;;;1.80;;
7150;SDS011;3617;48.836;9.172;2023-04-03T15:27:19;2.00;;;1.70;;
7150;SDS011;3617;48.836;9.172;2023-04-03T15:29:45;3.33;;;1.60;;
7150;SDS011;3617;48.836;9.172;2023-04-03T15:32:12;2.37;;;1.60;;
7150;SDS011;3617;48.836;9.172;2023-04-03T15:34:38;2.20;;;1.60;;
7150;SDS011;3617;48.836;9.172;2023-04-03T15:37:04;2.80;;;1.73;;
7150;SDS011;3617;48.836;9.172;2023-04-03T15:39:30;3.40;;;1.80;;
7150;SDS011;3617;48.836;9.172;2023-04-03T15:41:57;2.67;;;1.73;;
7150;SDS011;3617;48.836;9.172;2023-04-03T15:44:29;2.17;;;1.43;;
7150;SDS011;3617;48.836;9.172;2023-04-03T15:46:55;2.53;;;1.80;;
7150;SDS011;3617;48.836;9.172;2023-04-03T15:49:21;5.13;;;1.70;;
7150;SDS011;3617;48.836;9.172;2023-04-03T15:51:48;3.40;;;1.80;;
7150;SDS011;3617;48.836;9.172;2023-04-03T15:54:14;2.00;;;1.80;;
7150;SDS011;3617;48.836;9.172;2023-04-03T15:56:39;2.10;;;1.73;;
7150;SDS011;3617;48.836;9.172;2023-04-03T15:59:05;2.63;;;1.63;;
7150;SDS011;3617;48.836;9.172;2023-04-03T16:01:32;1.70;;;1.60;;
7150;SDS011;3617;48.836;9.172;2023-04-03T16:03:58;3.17;;;2.03;;
7150;SDS011;3617;48.836;9.172;2023-04-03T16:06:24;2.30;;;1.73;;
7150;SDS011;3617;48.836;9.172;2023-04-03T16:08:53;2.47;;;1.80;;
7150;SDS011;3617;48.836;9.172;2023-04-03T16:11:22;2.37;;;1.80;;
7150;SDS011;3617;48.836;9.172;2023-04-03T16:13:48;3.90;;;1.77;;
7150;SDS011;3617;48.836;9.172;2023-04-03T16:16:14;3.53;;;1.97;;
7150;SDS011;3617;48.836;9.172;2023-04-03T16:18:40;1.90;;;1.60;;
7150;SDS011;3617;48.836;9.172;2023-04-03T16:21:06;2.80;;;2.00;;
7150;SDS011;3617;48.836;9.172;2023-04-03T16:23:33;2.43;;;1.90;;
7150;SDS011;3617;48.836;9.172;2023-04-03T16:25:59;2.20;;;2.00;;
7150;SDS011;3617;48.836;9.172;2023-04-03T16:28:25;2.07;;;1.70;;
7150;SDS011;3617;48.836;9.172;2023-04-03T16:30:51;2.70;;;1.93;;
7150;SDS011;3617;48.836;9.172;2023-04-03T16:33:17;2.67;;;2.13;;
7150;SDS011;3617;48.836;9.172;2023-04-03T16:35:46;2.20;;;1.80;;
7150;SDS011;3617;48.836;9.172;2023-04-03T16:38:13;2.27;;;1.73;;
7150;SDS011;3617;48.836;9.172;2023-04-03T16:40:39;4.57;;;2.03;;
7150;SDS011;3617;48.836;9.172;2023-04-03T16:43:05;2.93;;;1.70;;